Time;durP1;ratioP1;P1;durP2;ratioP2;P2;SDS_P1;SDS_P2;PMS_P1;PMS_P2;Temp;Humidity;BMP_temperature;BMP_pressure;BME280_temperature;BME280_humidity;BME280_pressure;Samples;Min_cycle;Max_cycle;Signal;HPM_P1;HPM_P2
2023/10/14 00:02:30;;;;;;;24.47;2.73;;;;;;;23.59;53.30;98307.94;7315191;19;128955;-37
2023/10/14 00:04:52;;;;;;;74.57;5.55;;;;;;;23.55;55.13;98319.78;7312451;19;129407;-40
2023/10/14 00:07:17;;;;;;;27.38;2.53;;;;;;;23.57;55.30;98319.63;7312576;19;130492;-39
2023/10/14 00:09:43;;;;;;;68.47;5.03;;;;;;;23.57;55.50;98322.25;7312125;19;129507;-40
2023/10/14 00:12:16;;;;;;;61.93;4.33;;;;;;;23.55;55.45;98311.91;7315314;19;129204;-37
2023/10/14 00:14:45;;;;;;;35.83;3.20;;;;;;;23.47;55.61;98291.03;7311453;19;129396;-37
2023/10/14 00:17:18;;;;;;;53.67;3.95;;;;;;;23.58;55.72;98300.25;7313273;19;129856;-39
2023/10/14 00:19:49;;;;;;;45.88;3.58;;;;;;;23.58;55.77;98311.56;7311822;19;129285;-40
2023/10/14 00:22:16;;;;;;;59.42;4.20;;;;;;;23.56;55.98;98305.69;7313923;19;128909;-39
2023/10/14 00:24:43;;;;;;;76.28;5.00;;;;;;;23.59;56.67;98302.69;7311845;19;130680;-35
2023/10/14 00:27:08;;;;;;;32.47;2.80;;;;;;;23.59;56.03;98294.00;7314743;19;132762;-40
2023/10/14 00:29:35;;;;;;;31.00;3.03;;;;;;;23.58;56.37;98297.63;7310181;19;129959;-38
2023/10/14 00:32:03;;;;;;;56.03;4.00;;;;;;;23.58;56.33;98287.94;7313589;19;129272;-39
2023/10/14 00:34:29;;;;;;;51.55;4.00;;;;;;;23.59;56.73;98286.94;7313988;19;128952;-35
2023/10/14 00:36:58;;;;;;;72.57;5.27;;;;;;;23.59;56.43;98291.38;7313514;19;130526;-39
2023/10/14 00:39:26;;;;;;;16.83;2.08;;;;;;;23.59;57.01;98281.69;7313413;19;129406;-38
2023/10/14 00:41:52;;;;;;;78.00;5.28;;;;;;;23.50;53.98;98282.81;7311277;19;129171;-37
2023/10/14 00:44:19;;;;;;;50.97;4.20;;;;;;;23.45;53.27;98279.09;7309207;19;130258;-36
2023/10/14 00:46:51;;;;;;;;;;;;;;;23.54;53.00;98278.81;7311313;19;129316;-39
2023/10/14 00:49:18;;;;;;;46.75;3.42;;;;;;;23.57;54.05;98288.94;7311407;19;129639;-37
2023/10/14 00:51:49;;;;;;;49.42;3.63;;;;;;;23.54;55.37;98289.31;7312010;19;129187;-39
2023/10/14 00:57:10;;;;;;;79.30;5.75;;;;;;;23.58;55.19;98293.19;7312008;19;129436;-38
2023/10/14 00:59:37;;;;;;;95.18;6.05;;;;;;;23.57;55.68;98294.19;7312126;19;129886;-37
2023/10/14 01:02:03;;;;;;;20.92;2.20;;;;;;;23.58;56.27;98295.81;7313254;19;128804;-39
2023/10/14 01:04:34;;;;;;;29.00;2.60;;;;;;;23.59;56.40;98286.94;7310995;19;131090;-40
2023/10/14 01:09:34;;;;;;;68.82;4.35;;;;;;;23.59;56.35;98291.38;7311657;19;129182;-39
2023/10/14 01:12:16;;;;;;;62.42;4.53;;;;;;;23.59;56.22;98288.75;7313276;19;129109;-39
2023/10/14 01:14:54;;;;;;;31.73;2.85;;;;;;;23.57;56.82;98296.81;7310488;19;130311;-39
2023/10/14 01:17:27;;;;;;;45.42;3.42;;;;;;;23.57;56.60;98293.38;7313225;19;131867;-39
2023/10/14 01:19:53;;;;;;;68.47;4.75;;;;;;;23.57;57.04;98288.94;7311197;19;129475;-40
2023/10/14 01:22:19;;;;;;;57.05;3.97;;;;;;;23.57;56.67;98285.50;7312065;19;129064;-39
2023/10/14 01:24:44;;;;;;;51.67;3.80;;;;;;;23.58;56.52;98280.09;7309402;19;130710;-35
2023/10/14 01:27:11;;;;;;;45.53;3.10;;;;;;;23.58;56.86;98285.31;7309249;19;129767;-40
2023/10/14 01:29:41;;;;;;;26.55;2.28;;;;;;;23.41;54.07;98291.75;7309982;19;128939;-37
2023/10/14 01:32:23;;;;;;;48.72;3.63;;;;;;;23.56;53.33;98292.56;7310063;19;128948;-38
2023/10/14 01:34:55;;;;;;;93.90;6.10;;;;;;;23.62;53.69;98293.66;7309870;19;130304;-40
2023/10/14 01:37:21;;;;;;;66.20;4.32;;;;;;;23.56;54.76;98295.19;7310739;19;129418;-39
2023/10/14 01:39:56;;;;;;;39.23;3.20;;;;;;;23.57;55.36;98283.69;7312063;19;129383;-40
2023/10/14 01:42:22;;;;;;;64.95;4.40;;;;;;;23.58;55.48;98295.00;7311105;19;128921;-39
2023/10/14 01:44:53;;;;;;;66.47;4.90;;;;;;;23.60;55.43;98280.69;7305936;19;130096;-38
2023/10/14 01:47:25;;;;;;;47.22;3.28;;;;;;;23.62;55.82;98275.28;7311653;19;131213;-39
2023/10/14 01:49:51;;;;;;;86.03;5.85;;;;;;;23.59;55.66;98281.69;7307255;19;129023;-39
2023/10/14 01:52:19;;;;;;;17.77;2.13;;;;;;;23.59;56.18;98279.06;7307918;19;129077;-38
2023/10/14 01:54:47;;;;;;;34.20;2.60;;;;;;;23.58;56.07;98261.72;7308940;19;130558;-34
2023/10/14 01:57:17;;;;;;;58.15;4.32;;;;;;;23.58;56.12;98274.84;7310863;19;130358;-40
2023/10/14 01:59:46;;;;;;;72.28;4.50;;;;;;;23.58;56.15;98259.09;7310945;19;129769;-37
2023/10/14 02:02:12;;;;;;;26.13;2.78;;;;;;;23.58;56.25;98261.72;7312158;19;129032;-37
2023/10/14 02:04:37;;;;;;;31.42;2.70;;;;;;;23.56;56.19;98247.13;7310419;19;130842;-39
2023/10/14 02:07:18;;;;;;;41.07;3.57;;;;;;;23.59;57.00;98244.13;7310551;19;130467;-40
2023/10/14 02:09:43;;;;;;;71.30;4.55;;;;;;;23.58;56.33;98242.53;7308898;19;129094;-36
2023/10/14 02:12:08;;;;;;;45.70;3.23;;;;;;;23.57;56.63;98228.59;7309383;19;129136;-39
2023/10/14 02:14:34;;;;;;;33.13;2.97;;;;;;;23.44;54.89;98231.06;7310369;19;131156;-40
2023/10/14 02:17:00;;;;;;;52.30;3.77;;;;;;;23.46;53.74;98223.81;7310197;19;129986;-38
2023/10/14 02:22:00;;;;;;;73.83;5.00;;;;;;;23.61;54.37;98211.50;7310627;19;128959;-38
2023/10/14 02:24:29;;;;;;;36.50;2.97;;;;;;;23.58;54.91;98203.16;7309155;19;129188;-38
2023/10/14 02:26:57;;;;;;;63.15;4.43;;;;;;;23.58;55.29;98206.63;7309521;19;130967;-38
2023/10/14 02:29:24;;;;;;;38.75;2.90;;;;;;;23.59;55.26;98210.03;7308726;19;129403;-38
2023/10/14 02:31:49;;;;;;;;;;;;;;;23.65;57.94;98196.97;7310956;19;129482;-39
2023/10/14 02:34:15;;;;;;;27.67;2.30;;;;;;;23.58;56.22;98201.38;7303280;19;130080;-38
2023/10/14 02:36:50;;;;;;;19.03;1.87;;;;;;;23.59;56.19;98200.38;7307282;19;130395;-39
2023/10/14 02:39:17;;;;;;;54.13;3.72;;;;;;;23.59;56.44;98176.75;7312070;19;129197;-40
2023/10/14 02:41:58;;;;;;;69.03;4.28;;;;;;;23.59;57.11;98179.38;7310450;19;129030;-40
2023/10/14 02:44:32;;;;;;;83.47;4.97;;;;;;;23.58;57.06;98180.38;7310008;19;130185;-38
2023/10/14 02:47:04;;;;;;;40.70;3.78;;;;;;;23.58;56.83;98182.19;7310135;19;129259;-34
2023/10/14 02:49:36;;;;;;;14.80;1.92;;;;;;;23.59;56.73;98182.00;7309597;19;129082;-38
2023/10/14 02:52:08;;;;;;;162.70;10.25;;;;;;;23.58;56.57;98174.31;7306729;19;130037;-38
2023/10/14 02:54:34;;;;;;;35.13;2.95;;;;;;;23.58;56.71;98169.88;7308268;19;131491;-38
2023/10/14 02:57:12;;;;;;;82.78;5.05;;;;;;;23.59;56.27;98171.50;7306735;19;131532;-38
2023/10/14 03:07:33;;;;;;;25.13;2.37;;;;;;;23.63;53.71;98141.28;7308671;19;129577;-39
2023/10/14 03:12:49;;;;;;;35.40;2.80;;;;;;;23.59;55.47;98129.53;7309600;19;129010;-35
2023/10/14 03:15:21;;;;;;;80.43;4.90;;;;;;;23.59;55.65;98126.91;7306601;19;129271;-39
2023/10/14 03:18:03;;;;;;;61.33;3.88;;;;;;;23.59;56.57;98121.66;7308989;19;131040;-37
2023/10/14 03:23:11;;;;;;;78.85;4.90;;;;;;;23.60;55.77;98122.47;7308188;19;129077;-39
2023/10/14 03:25:38;;;;;;;22.48;2.22;;;;;;;23.61;55.94;98116.22;7305738;19;129328;-34
2023/10/14 03:28:12;;;;;;;70.68;4.95;;;;;;;23.60;56.74;98114.59;7307381;19;129284;-40
2023/10/14 03:30:40;;;;;;;57.08;3.90;;;;;;;23.50;56.27;98093.94;7305132;19;128956;-39
2023/10/14 03:33:09;;;;;;;93.63;5.90;;;;;;;23.57;56.76;98120.22;7309702;19;132082;-36
2023/10/14 03:35:36;;;;;;;44.17;3.42;;;;;;;23.60;56.59;98120.63;7307949;19;129675;-39
2023/10/14 03:38:11;;;;;;;;;;;;;;;23.64;57.94;98108.78;7307533;19;129354;-39
2023/10/14 03:43:16;;;;;;;;;;;;;;;23.64;58.48;98121.91;7306978;19;128906;-39
2023/10/14 03:46:29;;;;;;;37.03;2.95;;;;;;;23.59;56.40;98113.78;7306825;19;130208;-37
2023/10/14 03:49:06;;;;;;;43.05;3.13;;;;;;;23.43;53.71;98119.28;7308898;19;129577;-39
2023/10/14 03:51:24;;;;;;;66.03;4.30;;;;;;;23.46;53.58;98124.16;7316064;19;129081;-39
2023/10/14 03:54:08;;;;;;;78.13;5.25;;;;;;;23.60;54.60;98127.72;7310009;19;129682;-40
2023/10/14 03:56:34;;;;;;;29.52;2.47;;;;;;;23.57;54.65;98126.28;7313873;19;130010;-39
2023/10/14 03:59:01;;;;;;;63.87;4.10;;;;;;;23.59;55.58;98119.03;7314457;19;129501;-38
2023/10/14 04:01:33;;;;;;;59.90;3.85;;;;;;;23.61;55.19;98121.47;7315362;19;128998;-40
2023/10/14 04:04:01;;;;;;;104.32;6.40;;;;;;;23.49;55.98;98107.22;7313435;19;130984;-39
2023/10/14 04:06:27;;;;;;;48.33;3.35;;;;;;;23.60;55.94;98109.34;7311577;19;130780;-38
2023/10/14 04:08:54;;;;;;;20.40;1.87;;;;;;;23.61;56.13;98122.28;7314073;19;129702;-39
2023/10/14 04:11:27;;;;;;;27.65;2.50;;;;;;;23.62;56.13;98108.16;7314082;19;130405;-39
2023/10/14 04:14:03;;;;;;;114.20;7.00;;;;;;;23.62;55.79;98112.59;7314170;19;129546;-37
2023/10/14 04:17:18;;;;;;;48.72;3.38;;;;;;;23.60;56.47;98110.16;7310495;19;129653;-39
2023/10/14 04:21:52;;;;;;;17.83;1.93;;;;;;;23.59;56.92;98105.91;7315333;19;129250;-38
2023/10/14 04:26:44;;;;;;;37.90;2.67;;;;;;;23.62;56.79;98116.03;7310468;19;129040;-40
2023/10/14 04:29:22;;;;;;;96.38;5.65;;;;;;;23.60;56.16;98104.91;7311540;19;131442;-37
2023/10/14 04:31:55;;;;;;;48.75;3.22;;;;;;;23.56;56.10;98110.72;7314735;19;128924;-39
2023/10/14 04:34:22;;;;;;;25.27;2.22;;;;;;;23.44;54.15;98110.41;7313394;19;129201;-40
2023/10/14 04:36:54;;;;;;;37.78;3.05;;;;;;;23.47;53.04;98107.41;7310499;19;130623;-37
2023/10/14 04:39:26;;;;;;;16.60;1.90;;;;;;;23.56;53.99;98114.16;7311347;19;131066;-40
2023/10/14 04:42:22;;;;;;;62.33;3.90;;;;;;;23.57;55.24;98121.03;7314322;19;129160;-34
2023/10/14 04:45:00;;;;;;;45.40;3.13;;;;;;;23.58;55.43;98112.16;7312476;19;130392;-39
2023/10/14 04:47:37;;;;;;;61.72;3.92;;;;;;;23.50;55.92;98099.19;7313658;19;130582;-40
2023/10/14 04:50:10;;;;;;;97.45;5.93;;;;;;;23.61;56.98;98116.22;7311090;19;130457;-38
2023/10/14 04:52:38;;;;;;;34.38;2.65;;;;;;;23.62;56.00;98118.66;7311839;19;131313;-38
2023/10/14 04:55:25;;;;;;;48.30;3.60;;;;;;;23.61;56.08;98117.03;7310855;19;130183;-40
2023/10/14 05:00:43;;;;;;;54.42;3.75;;;;;;;23.53;56.30;98106.69;7312970;19;129603;-38
2023/10/14 05:03:12;;;;;;;49.92;3.60;;;;;;;23.61;56.78;98119.66;7311695;19;129022;-39
2023/10/14 05:05:38;;;;;;;87.55;5.22;;;;;;;23.59;56.19;98119.03;7310580;19;130041;-39
2023/10/14 05:08:05;;;;;;;65.40;4.57;;;;;;;23.58;56.63;98117.41;7312178;19;130641;-39
2023/10/14 05:10:31;;;;;;;20.25;2.20;;;;;;;23.61;56.68;98122.28;7310601;19;130041;-39
2023/10/14 05:12:57;;;;;;;47.93;3.33;;;;;;;23.61;56.75;98109.16;7310622;19;128979;-38
2023/10/14 05:15:26;;;;;;;53.92;3.70;;;;;;;23.62;56.88;98102.13;7311021;19;129115;-38
2023/10/14 05:18:00;;;;;;;54.92;3.63;;;;;;;23.48;54.55;98109.03;7312222;19;130883;-40
2023/10/14 05:20:38;;;;;;;39.60;2.83;;;;;;;23.48;53.43;98109.03;7313379;19;129207;-40
2023/10/14 05:23:05;;;;;;;72.03;5.15;;;;;;;23.56;52.91;98098.41;7311545;19;129646;-38
2023/10/14 05:25:30;;;;;;;48.92;3.40;;;;;;;23.64;54.10;98103.53;7308312;19;129509;-40
2023/10/14 05:27:56;;;;;;;59.50;3.67;;;;;;;23.51;55.45;98090.31;7307474;19;129148;-39
2023/10/14 05:30:22;;;;;;;67.10;4.30;;;;;;;23.63;55.39;98098.47;7309041;19;130396;-36
2023/10/14 05:32:49;;;;;;;71.93;4.45;;;;;;;23.62;55.98;98100.28;7308292;19;129071;-38
2023/10/14 05:35:15;;;;;;;88.43;5.93;;;;;;;23.63;55.38;98104.53;7306487;19;129027;-35
2023/10/14 05:37:45;;;;;;;126.70;7.30;;;;;;;23.64;55.95;98105.34;7309685;19;129396;-31
2023/10/14 05:40:13;;;;;;;65.30;4.53;;;;;;;23.59;56.23;98103.28;7310613;19;129018;-38
2023/10/14 05:42:43;;;;;;;6.28;1.50;;;;;;;23.62;56.00;98118.66;7312657;19;128704;-38
2023/10/14 05:45:11;;;;;;;60.03;4.15;;;;;;;23.61;56.32;98118.84;7308934;19;129131;-37
2023/10/14 05:47:37;;;;;;;57.08;3.83;;;;;;;23.53;56.66;98113.72;7309377;19;130464;-40
2023/10/14 05:50:06;;;;;;;89.13;5.63;;;;;;;23.63;56.81;98129.97;7309134;19;129530;-37
2023/10/14 05:52:32;;;;;;;41.35;3.13;;;;;;;23.61;56.23;98132.78;7308891;19;129458;-39
2023/10/14 05:55:00;;;;;;;26.53;2.17;;;;;;;23.61;56.64;98138.03;7309320;19;129131;-39
2023/10/14 05:57:29;;;;;;;184.48;11.13;;;;;;;23.58;56.59;98130.53;7306802;19;130165;-36
2023/10/14 05:59:57;;;;;;;90.95;5.43;;;;;;;23.62;56.63;98144.88;7306304;19;130679;-39
2023/10/14 06:02:22;;;;;;;30.50;2.72;;;;;;;23.45;54.24;98140.09;7310431;19;129181;-40
2023/10/14 06:04:50;;;;;;;48.50;3.40;;;;;;;23.43;53.76;98124.53;7308297;19;129207;-39
2023/10/14 06:07:18;;;;;;;19.52;2.10;;;;;;;23.62;52.63;98141.47;7310627;19;129117;-38
2023/10/14 06:09:47;;;;;;;166.35;9.70;;;;;;;23.52;54.02;98127.84;7304555;19;130603;-38
2023/10/14 06:12:13;;;;;;;49.75;3.63;;;;;;;23.61;54.92;98153.78;7308854;19;129219;-37
2023/10/14 06:14:39;;;;;;;107.73;6.77;;;;;;;23.62;55.23;98149.34;7307749;19;129243;-39
2023/10/14 06:17:05;;;;;;;81.25;5.43;;;;;;;23.63;55.27;98141.28;7304939;19;129285;-38
2023/10/14 06:19:31;;;;;;;104.43;6.60;;;;;;;23.64;55.81;98142.88;7304707;19;129576;-35
2023/10/14 06:21:56;;;;;;;27.97;2.53;;;;;;;23.63;55.49;98151.78;7303431;19;129861;-36
2023/10/14 06:24:23;;;;;;;48.67;3.87;;;;;;;23.64;56.15;98148.13;7303357;19;129430;-38
2023/10/14 06:26:48;;;;;;;26.52;2.13;;;;;;;23.64;56.57;98158.63;7304128;19;129783;-38
2023/10/14 06:29:14;;;;;;;93.10;5.97;;;;;;;23.62;56.28;98144.88;7304372;19;129645;-38
2023/10/14 06:31:40;;;;;;;60.13;3.93;;;;;;;23.61;56.25;98143.28;7305938;19;129833;-39
2023/10/14 06:34:11;;;;;;;92.00;6.30;;;;;;;23.62;56.76;98144.88;7303972;19;130647;-39
2023/10/14 06:36:37;;;;;;;34.80;2.80;;;;;;;23.61;56.22;98148.53;7304627;19;129375;-39
2023/10/14 06:39:14;;;;;;;142.70;7.97;;;;;;;23.62;56.49;98139.63;7308397;19;131091;-40
2023/10/14 06:41:43;;;;;;;110.95;6.30;;;;;;;23.61;56.39;98159.00;7307887;19;129497;-36
2023/10/14 06:44:15;;;;;;;75.82;5.22;;;;;;;23.51;57.08;98148.00;7304463;19;129102;-38
2023/10/14 06:46:46;;;;;;;98.53;6.65;;;;;;;23.61;57.10;98163.44;7305454;19;130626;-37
2023/10/14 06:49:16;;;;;;;71.25;4.75;;;;;;;23.56;53.98;98161.38;7304963;19;130542;-39
2023/10/14 06:51:42;;;;;;;78.30;4.97;;;;;;;23.63;54.10;98175.38;7307143;19;130304;-38
2023/10/14 06:54:09;;;;;;;76.97;5.07;;;;;;;23.62;53.32;98159.84;7307626;19;128978;-38
2023/10/14 06:56:36;;;;;;;36.75;2.75;;;;;;;23.64;54.42;98182.25;7306559;19;130007;-39
2023/10/14 06:59:01;;;;;;;48.28;3.25;;;;;;;23.64;55.12;98181.44;7307765;19;129454;-36
2023/10/14 07:01:28;;;;;;;35.40;3.00;;;;;;;23.52;55.20;98154.09;7308078;19;130882;-39
2023/10/14 07:03:54;;;;;;;82.47;5.47;;;;;;;23.64;55.66;98187.50;7308270;19;128880;-37
2023/10/14 07:06:20;;;;;;;51.97;3.80;;;;;;;23.63;55.79;98191.13;7302555;19;129136;-37
2023/10/14 07:08:48;;;;;;;42.22;3.17;;;;;;;23.64;55.70;98203.25;7309030;19;129347;-38
2023/10/14 07:11:15;;;;;;;88.00;5.47;;;;;;;23.63;56.32;98204.25;7302133;19;129414;-38
2023/10/14 07:13:42;;;;;;;51.42;3.70;;;;;;;23.50;55.76;98261.81;7307325;19;129814;-39
2023/10/14 07:16:07;;;;;;;55.47;3.97;;;;;;;23.55;56.38;98277.00;7301843;19;130430;-37
2023/10/14 07:18:36;;;;;;;39.87;3.00;;;;;;;23.63;56.38;98282.16;7301524;19;129600;-39
2023/10/14 07:21:02;;;;;;;48.97;3.20;;;;;;;23.63;56.41;98293.47;7305726;19;130112;-38
2023/10/14 07:23:34;;;;;;;85.05;5.30;;;;;;;23.63;56.63;98301.34;7302369;19;128898;-37
2023/10/14 07:26:20;;;;;;;28.70;2.42;;;;;;;23.66;57.69;98302.75;7305669;19;131122;-39
2023/10/14 07:28:51;;;;;;;58.97;3.92;;;;;;;23.65;56.46;98312.44;7312432;19;131686;-37
2023/10/14 07:31:17;;;;;;;41.83;3.63;;;;;;;23.55;56.55;98296.16;7312054;19;130914;-39
2023/10/14 07:33:43;;;;;;;93.28;5.93;;;;;;;23.48;54.53;98321.53;7305402;19;130116;-38
2023/10/14 07:36:11;;;;;;;84.10;4.93;;;;;;;23.44;53.51;98315.00;7309843;19;130953;-36
2023/10/14 07:38:37;;;;;;;51.35;3.95;;;;;;;23.63;52.80;98340.69;7314002;19;130467;-38
2023/10/14 07:41:04;;;;;;;36.45;2.72;;;;;;;23.70;53.98;98338.94;7309747;19;129827;-38
2023/10/14 07:43:33;;;;;;;31.48;2.78;;;;;;;23.63;55.30;98335.44;7313479;19;129308;-38
2023/10/14 07:46:00;;;;;;;83.55;5.15;;;;;;;23.65;55.62;98346.53;7309319;19;129882;-39
2023/10/14 07:48:26;;;;;;;50.97;3.78;;;;;;;23.65;55.88;98354.41;7315334;19;130453;-40
2023/10/14 07:50:56;;;;;;;109.03;6.10;;;;;;;23.59;55.75;98342.03;7313539;19;129852;-35
2023/10/14 07:53:25;;;;;;;103.75;6.97;;;;;;;23.66;55.87;98363.13;7311089;19;129145;-35
2023/10/14 07:55:56;;;;;;;101.55;5.72;;;;;;;23.65;57.06;98367.53;7311734;19;129878;-36
2023/10/14 07:58:26;;;;;;;145.13;9.10;;;;;;;23.64;56.83;98386.91;7309998;19;131669;-36
2023/10/14 08:00:52;;;;;;;74.50;4.65;;;;;;;23.66;56.02;98392.81;7311441;19;129449;-39
2023/10/14 08:03:18;;;;;;;;;;;;;;;23.70;58.30;98375.69;7312185;19;129267;-40
2023/10/14 08:05:59;;;;;;;84.07;5.65;;;;;;;23.58;57.50;98377.16;7305210;19;130806;-40
2023/10/14 08:08:30;;;;;;;99.55;6.13;;;;;;;23.64;56.51;98400.03;7312336;19;129433;-39
2023/10/14 08:10:57;;;;;;;55.53;3.60;;;;;;;23.64;56.48;98414.97;7309705;19;129554;-37
2023/10/14 08:13:23;;;;;;;125.88;7.78;;;;;;;23.64;56.73;98425.44;7311785;19;128853;-40
2023/10/14 08:15:50;;;;;;;46.67;3.23;;;;;;;23.63;57.19;98427.28;7310555;19;129782;-39
2023/10/14 08:18:20;;;;;;;79.10;5.05;;;;;;;23.63;57.57;98452.69;7313484;19;130527;-36
2023/10/14 08:20:45;;;;;;;80.78;5.07;;;;;;;23.45;53.95;98458.31;7313944;19;129790;-38
2023/10/14 08:23:12;;;;;;;27.10;2.30;;;;;;;23.54;52.99;98446.72;7312930;19;130782;-39
2023/10/14 08:25:42;;;;;;;64.40;4.43;;;;;;;23.71;53.40;98448.19;7302538;19;129707;-38
2023/10/14 08:28:09;;;;;;;63.75;3.92;;;;;;;23.65;54.80;98454.13;7308924;19;129869;-37
2023/10/14 08:30:50;;;;;;;65.82;4.05;;;;;;;23.64;56.04;98456.94;7310620;19;129062;-37
2023/10/14 08:33:18;;;;;;;81.38;5.13;;;;;;;23.62;55.79;98465.00;7313344;19;129438;-33
2023/10/14 08:35:44;;;;;;;30.08;2.42;;;;;;;23.65;55.32;98498.75;7308867;19;129233;-38
2023/10/14 08:38:19;;;;;;;29.33;2.40;;;;;;;23.66;55.63;98497.78;7308689;19;129393;-39
2023/10/14 08:40:46;;;;;;;29.50;2.17;;;;;;;23.66;56.12;98505.63;7309547;19;129029;-38
2023/10/14 08:43:18;;;;;;;76.03;4.70;;;;;;;23.66;56.34;98510.88;7313581;19;128947;-36
2023/10/14 08:45:47;;;;;;;48.83;3.28;;;;;;;23.66;56.57;98534.50;7304978;19;130177;-37
2023/10/14 08:48:15;;;;;;;82.47;5.10;;;;;;;23.66;55.87;98533.69;7307585;19;130831;-38
2023/10/14 08:50:41;;;;;;;39.30;2.72;;;;;;;23.64;56.12;98546.16;7306727;19;129604;-37
2023/10/14 08:53:07;;;;;;;;;;;;;;;23.71;58.34;98558.41;7307398;19;131817;-37
2023/10/14 08:55:34;;;;;;;57.72;3.50;;;;;;;23.55;56.80;98537.53;7309807;19;131064;-36
2023/10/14 08:58:04;;;;;;;48.22;3.20;;;;;;;23.66;56.71;98576.50;7304966;19;130825;-40
2023/10/14 09:00:30;;;;;;;75.55;4.85;;;;;;;23.65;56.87;98572.22;7302068;19;130262;-39
2023/10/14 09:02:57;;;;;;;61.92;3.65;;;;;;;23.67;56.22;98583.34;7311114;19;129454;-39
2023/10/14 09:05:26;;;;;;;93.32;5.55;;;;;;;23.52;54.35;98584.34;7309812;19;130244;-34
2023/10/14 09:07:55;;;;;;;12.15;1.40;;;;;;;23.55;53.30;98594.47;7308027;19;130527;-38
2023/10/14 09:10:24;;;;;;;63.28;4.07;;;;;;;23.59;52.32;98593.94;7308050;19;129598;-38
2023/10/14 09:12:57;;;;;;;33.88;2.58;;;;;;;23.63;55.01;98604.91;7307671;19;129324;-38
2023/10/14 09:15:25;;;;;;;120.88;6.95;;;;;;;23.56;54.80;98617.91;7306601;19;131182;-38
2023/10/14 09:17:55;;;;;;;79.50;4.65;;;;;;;23.51;55.60;98625.47;7305549;19;129528;-35
2023/10/14 09:20:31;;;;;;;57.30;4.07;;;;;;;23.57;57.11;98648.38;7307159;19;129806;-35
2023/10/14 09:23:17;;;;;;;33.65;2.60;;;;;;;23.66;57.25;98657.84;7306474;19;129101;-39
2023/10/14 09:25:56;;;;;;;14.80;1.48;;;;;;;23.53;57.55;98626.13;7308774;19;130742;-38
2023/10/14 09:28:23;;;;;;;71.93;4.78;;;;;;;23.66;56.62;98665.72;7305639;19;129892;-39
2023/10/14 09:30:53;;;;;;;146.18;8.68;;;;;;;23.64;56.91;98665.06;7304536;19;129267;-38
2023/10/14 09:33:27;;;;;;;136.93;8.38;;;;;;;23.66;57.06;98670.97;7302509;19;131143;-39
2023/10/14 09:35:59;;;;;;;24.50;2.05;;;;;;;23.67;56.56;98701.44;7304778;19;129295;-38
2023/10/14 09:38:26;;;;;;;56.97;3.88;;;;;;;23.66;56.34;98697.22;7304332;19;130351;-38
2023/10/14 09:40:57;;;;;;;85.53;5.60;;;;;;;23.55;56.04;98687.09;7308090;19;131535;-38
2023/10/14 09:43:26;;;;;;;91.65;5.35;;;;;;;23.68;56.60;98716.22;7308493;19;129984;-39
2023/10/14 09:45:56;;;;;;;62.50;4.10;;;;;;;23.66;57.28;98712.13;7300749;19;129761;-36
2023/10/14 09:48:29;;;;;;;99.78;6.47;;;;;;;23.67;56.83;98713.78;7306991;19;129328;-36
2023/10/14 09:50:57;;;;;;;72.68;4.90;;;;;;;23.59;54.50;98721.69;7300041;19;130646;-38
2023/10/14 09:53:27;;;;;;;74.53;4.82;;;;;;;23.59;53.24;98725.13;7307447;19;129489;-39
2023/10/14 09:56:12;;;;;;;126.30;7.10;;;;;;;23.73;52.84;98721.78;7302859;19;129234;-36
2023/10/14 09:58:42;;;;;;;70.15;4.05;;;;;;;23.66;54.80;98733.94;7308394;19;131630;-38
2023/10/14 10:01:15;;;;;;;70.05;4.50;;;;;;;23.66;55.53;98747.06;7305970;19;130416;-34
2023/10/14 10:03:44;;;;;;;69.88;4.45;;;;;;;23.67;55.15;98751.31;7308467;19;129390;-37
2023/10/14 10:06:15;;;;;;;46.20;3.05;;;;;;;23.68;55.17;98758.22;7306568;19;129443;-36
2023/10/14 10:08:52;;;;;;;62.08;3.53;;;;;;;23.67;56.73;98759.19;7308155;19;129719;-38
2023/10/14 10:11:29;;;;;;;;;;;;;;;23.74;57.59;98754.06;7308899;19;129605;-34
2023/10/14 10:13:59;;;;;;;132.68;7.40;;;;;;;23.69;56.83;98765.09;7308860;19;131789;-36
2023/10/14 10:16:31;;;;;;;71.25;4.35;;;;;;;23.67;57.40;98767.06;7303731;19;130905;-39
2023/10/14 10:19:01;;;;;;;59.20;3.38;;;;;;;23.67;56.41;98761.81;7308109;19;131120;-37
2023/10/14 10:21:31;;;;;;;32.97;2.53;;;;;;;23.67;57.16;98769.69;7305751;19;128990;-39
2023/10/14 10:24:17;;;;;;;95.60;5.68;;;;;;;23.65;58.12;98771.66;7302885;19;129802;-37
2023/10/14 10:27:04;;;;;;;86.93;5.03;;;;;;;23.68;58.23;98766.09;7303726;19;129629;-38
2023/10/14 10:29:42;;;;;;;111.45;6.70;;;;;;;23.56;57.03;98743.84;7303882;19;129531;-40
2023/10/14 10:32:08;;;;;;;;;;;;;;;23.73;58.60;98771.63;7307504;19;128988;-38
2023/10/14 10:34:39;;;;;;;83.07;4.80;;;;;;;23.69;56.24;98769.50;7307518;19;129243;-35
2023/10/14 10:37:04;;;;;;;53.55;3.33;;;;;;;23.51;54.26;98777.66;7309687;19;130592;-39
2023/10/14 10:39:31;;;;;;;66.87;4.17;;;;;;;23.54;53.12;98764.19;7305372;19;129704;-39
2023/10/14 10:41:57;;;;;;;79.13;4.32;;;;;;;23.70;53.72;98761.47;7303095;19;130050;-39
2023/10/14 10:44:26;;;;;;;61.03;3.43;;;;;;;23.65;55.12;98763.00;7309009;19;128826;-37
2023/10/14 10:46:55;;;;;;;67.20;4.47;;;;;;;23.52;55.23;98747.78;7303763;19;129521;-37
2023/10/14 10:49:59;;;;;;;68.55;4.20;;;;;;;23.67;57.30;98774.13;7306706;19;129997;-38
2023/10/14 10:52:28;;;;;;;79.50;4.35;;;;;;;23.67;56.69;98777.56;7308188;19;129975;-39
2023/10/14 10:54:55;;;;;;;43.50;2.72;;;;;;;23.68;55.57;98776.59;7304889;19;129244;-37
2023/10/14 10:57:21;;;;;;;70.03;4.07;;;;;;;23.55;56.27;98762.38;7307348;19;129539;-34
2023/10/14 10:59:46;;;;;;;60.17;3.83;;;;;;;23.67;56.52;98776.75;7315523;19;129511;-40
2023/10/14 11:02:18;;;;;;;67.33;4.47;;;;;;;23.69;55.91;98774.75;7312553;19;129226;-38
2023/10/14 11:04:45;;;;;;;33.67;2.35;;;;;;;23.66;56.34;98775.94;7312410;19;129154;-40
2023/10/14 11:07:11;;;;;;;61.97;3.53;;;;;;;23.67;56.00;98767.06;7312781;19;130601;-38
2023/10/14 11:09:40;;;;;;;95.97;5.68;;;;;;;23.65;56.78;98763.00;7313835;19;129712;-38
2023/10/14 11:12:09;;;;;;;42.10;2.85;;;;;;;23.67;57.68;98771.50;7309130;19;129353;-39
2023/10/14 11:14:35;;;;;;;118.65;6.72;;;;;;;23.68;56.85;98773.97;7308801;19;129420;-37
2023/10/14 11:17:00;;;;;;;141.80;8.50;;;;;;;23.68;56.48;98773.97;7311416;19;129397;-34
2023/10/14 11:19:30;;;;;;;102.43;5.83;;;;;;;23.54;57.20;98758.09;7312667;19;132383;-37
2023/10/14 11:21:58;;;;;;;57.05;3.63;;;;;;;23.48;53.77;98750.94;7314540;19;129518;-39
2023/10/14 11:24:24;;;;;;;60.22;3.65;;;;;;;23.61;52.82;98767.75;7306755;19;131353;-39
2023/10/14 11:26:50;;;;;;;73.43;4.10;;;;;;;23.77;52.90;98766.84;7309378;19;130728;-37
2023/10/14 11:29:15;;;;;;;96.30;5.53;;;;;;;23.66;54.70;98768.06;7313521;19;129844;-40
2023/10/14 11:31:44;;;;;;;52.80;3.13;;;;;;;23.68;55.63;98766.09;7309043;19;129098;-38
2023/10/14 11:34:13;;;;;;;84.45;4.82;;;;;;;23.67;55.95;98761.81;7310708;19;130842;-36
2023/10/14 11:36:42;;;;;;;63.13;4.05;;;;;;;23.69;55.75;98767.72;7309852;19;129271;-36
2023/10/14 11:39:13;;;;;;;96.30;5.15;;;;;;;23.68;56.17;98767.88;7312562;19;129299;-37
2023/10/14 11:41:40;;;;;;;93.07;5.72;;;;;;;23.69;56.28;98766.88;7313569;19;129333;-38
2023/10/14 11:44:05;;;;;;;81.95;4.93;;;;;;;23.69;56.09;98769.50;7312787;19;129487;-40
2023/10/14 11:46:38;;;;;;;91.80;5.47;;;;;;;23.59;56.37;98759.25;7310686;19;130073;-39
2023/10/14 11:49:09;;;;;;;106.47;6.03;;;;;;;23.70;56.85;98774.59;7310056;19;129948;-37
2023/10/14 11:51:39;;;;;;;91.75;5.35;;;;;;;23.68;55.71;98779.22;7311866;19;129296;-36
2023/10/14 11:54:06;;;;;;;91.78;5.35;;;;;;;23.68;56.85;98784.47;7311811;19;128986;-35
2023/10/14 11:56:33;;;;;;;68.18;3.95;;;;;;;23.68;55.99;98788.88;7309734;19;130040;-40
2023/10/14 11:59:00;;;;;;;38.15;2.55;;;;;;;23.66;56.38;98791.69;7313799;19;129545;-36
2023/10/14 12:01:28;;;;;;;86.13;4.72;;;;;;;23.67;56.78;98785.44;7308364;19;133517;-37
2023/10/14 12:03:54;;;;;;;98.72;5.70;;;;;;;23.68;56.13;98808.09;7315283;19;129439;-36